Airfield :
LOGIN :

Register | Disclaimer

   EN    FR    IT 

 










Legend :    VFR   Marginal VFR   IFR   Intensive IFR   Very Intensive IFR
Visi :
Ceiling :
>= 8 km
>= 3000ft
5 to 8 km
1000 to 3000 ft
1500m to 5 km
500 to 1000 ft
800 to 1500m
200 to 500 ft
< 800m
< 200 ft
Symbols :   Thunderstorms  Fog  Heavy snow  Heavy precipitations  Wind > 20 kt
SIGMETs :     Misc.  Thunderstorms  Icing  Turbulence  Mountain Waves  Volcanic Ashes







- Airport Elevation : 126 ft
- IATA code : WIC
- Download approach charts


EGPC - Wick

CURRENT METAR :
  • 121350Z 22004KT 9999 FEW022 03/M00 Q0996

EXPIRED METARs :
  • 121320Z 23004KT 9999 FEW022 03/M00 Q0997
  • 121250Z 24003KT 9999 FEW022 03/M01 Q0997
  • 121220Z 25002KT 9999 FEW022 03/M01 Q0998
  • 121150Z 26001KT 9999 FEW022 02/M01 Q0998
  • 121120Z 28002KT 9999 FEW012 02/M01 Q0998

TAF TAF EGPC
Valid from the 12 at 12:00 until the 12 at 21:00 UTC


121102Z 1212/1221 30005KT 9999 SCT030
BECMG 1212/1215 19012KT
TEMPO 1218/1221 20016G26KT 6000 RA BKN006
PROB30
TEMPO 1219/1221 3000 RADZ BKN004
ATIS : +44 1955 607 596
No reported NOTAMs for that airfield.



MET'MAP, your aeronautical weather chart ! - Copyright ORBIFLY December 2007 - Disclaimer

ORBIFLY MET'MAP TEAM :

Programming & Development : Alexandra Zaïnal
Concept & Development : Baudouin d'Aumeries
Co-Development & Prog : Marc-Olivier Méhu
Technical & hardware support : Manuel Goepfert

Contact : metmap@orbifly.com




SOURCES & CREDITS :

   NOAA